createdAt,value
2017-07-01T18:52:11.263Z,100416
2017-07-01T18:54:40.519Z,100410
2017-07-01T18:57:09.121Z,100407
2017-07-01T18:59:37.729Z,100423
2017-07-01T19:02:06.457Z,100428
2017-07-01T19:04:36.545Z,100417
2017-07-01T19:07:06.479Z,100428
2017-07-01T19:09:35.284Z,100428
2017-07-01T19:12:03.844Z,100433
2017-07-01T19:14:32.842Z,100438
2017-07-01T19:17:01.325Z,100448
2017-07-01T19:19:30.549Z,100445
2017-07-01T19:21:59.043Z,100458
2017-07-01T19:24:27.605Z,100460
2017-07-01T19:26:57.359Z,100462
2017-07-01T19:29:25.948Z,100475
2017-07-01T19:31:54.998Z,100462
2017-07-01T19:34:24.422Z,100470
2017-07-01T19:36:52.929Z,100474
2017-07-01T19:39:22.297Z,100476
2017-07-01T19:41:50.953Z,100475
2017-07-01T19:44:19.513Z,100489
2017-07-01T19:46:48.137Z,100489
2017-07-01T19:49:16.874Z,100489
2017-07-01T19:51:46.996Z,100489
2017-07-01T19:54:16.414Z,100498
2017-07-01T19:56:44.941Z,100500
2017-07-01T19:59:14.206Z,100501
2017-07-01T20:01:43.032Z,100506
2017-07-01T20:04:11.937Z,100516
2017-07-01T20:06:40.636Z,100519
2017-07-01T20:09:09.709Z,100524
2017-07-01T20:11:38.634Z,100531
2017-07-01T20:14:07.227Z,100537
2017-07-01T20:16:35.853Z,100538
2017-07-01T20:19:04.574Z,100534
2017-07-01T20:21:33.294Z,100548
2017-07-01T20:24:02.045Z,100532
2017-07-01T20:26:30.646Z,100543
2017-07-01T20:28:59.558Z,100545
2017-07-01T20:31:29.306Z,100546
2017-07-01T20:33:58.221Z,100545
2017-07-01T20:36:27.068Z,100544
2017-07-01T20:38:55.781Z,100552
2017-07-01T20:41:24.465Z,100554
2017-07-01T20:43:53.788Z,100556
2017-07-01T20:46:22.351Z,100560
2017-07-01T20:48:51.425Z,100559
2017-07-01T20:51:20.031Z,100559
2017-07-01T20:53:48.948Z,100559
2017-07-01T20:56:18.994Z,100557
2017-07-01T20:58:48.096Z,100568
2017-07-01T21:01:17.891Z,100568
2017-07-01T21:03:47.119Z,100572
2017-07-01T21:06:16.260Z,100576
2017-07-01T21:08:45.088Z,100583
2017-07-01T21:11:13.908Z,100591
2017-07-01T21:13:42.958Z,100605
2017-07-01T21:16:12.251Z,100594
2017-07-01T21:18:40.732Z,100599
2017-07-01T21:21:09.902Z,100591
2017-07-01T21:23:38.474Z,100607
2017-07-01T21:26:07.107Z,100606
2017-07-01T21:28:35.830Z,100606
2017-07-01T21:31:04.321Z,100603
2017-07-01T21:33:32.940Z,100618
2017-07-01T21:36:01.498Z,100618
2017-07-01T21:38:29.977Z,100619
2017-07-01T21:40:58.467Z,100616
2017-07-01T21:43:26.986Z,100618
2017-07-01T21:45:55.812Z,100618
2017-07-01T21:48:24.465Z,100627
2017-07-01T21:50:53.152Z,100623
2017-07-01T21:53:21.722Z,100623
2017-07-01T21:55:50.356Z,100623
2017-07-01T21:58:19.071Z,100631
2017-07-01T22:00:47.590Z,100638
2017-07-01T22:03:16.588Z,100634
2017-07-01T22:05:45.236Z,100638
2017-07-01T22:08:14.613Z,100653
2017-07-01T22:10:43.130Z,100645
2017-07-01T22:13:11.621Z,100646
2017-07-01T22:15:41.085Z,100644
2017-07-01T22:18:09.745Z,100649
2017-07-01T22:20:38.362Z,100649
2017-07-01T22:23:07.185Z,100655
2017-07-01T22:25:35.749Z,100665
2017-07-01T22:28:04.232Z,100661
2017-07-01T22:30:32.713Z,100667
2017-07-01T22:33:01.153Z,100669
2017-07-01T22:35:39.826Z,100662
2017-07-01T22:38:09.144Z,100672
2017-07-01T22:40:38.811Z,100660
2017-07-01T22:43:07.850Z,100653
2017-07-01T22:45:36.488Z,100667
2017-07-01T22:48:05.406Z,100673
2017-07-01T22:50:34.471Z,100678
2017-07-01T22:53:03.021Z,100678
2017-07-01T22:55:31.753Z,100685
2017-07-01T22:58:00.253Z,100690
2017-07-01T23:00:28.768Z,100681
2017-07-01T23:02:57.330Z,100688
2017-07-01T23:05:26.655Z,100688
2017-07-01T23:07:55.385Z,100694
2017-07-01T23:10:23.980Z,100690
2017-07-01T23:12:52.989Z,100688
2017-07-01T23:15:21.439Z,100688
2017-07-01T23:17:49.925Z,100704
2017-07-01T23:20:18.693Z,100699
2017-07-01T23:22:47.328Z,100702
2017-07-01T23:25:16.099Z,100714
2017-07-01T23:27:44.694Z,100713
2017-07-01T23:30:13.168Z,100709
2017-07-01T23:32:41.638Z,100715
2017-07-01T23:35:10.198Z,100715
2017-07-01T23:37:39.094Z,100716
2017-07-01T23:40:07.606Z,100720
2017-07-01T23:42:36.064Z,100716
2017-07-01T23:45:04.662Z,100718
2017-07-01T23:47:33.156Z,100728
2017-07-01T23:50:01.644Z,100725
2017-07-01T23:52:30.161Z,100725
2017-07-01T23:54:59.386Z,100718
2017-07-01T23:57:27.899Z,100724
2017-07-01T23:59:56.861Z,100721
